Time;durP1;ratioP1;P1;durP2;ratioP2;P2;SDS_P1;SDS_P2;PMS_P1;PMS_P2;Temp;Humidity;BMP_temperature;BMP_pressure;BME280_temperature;BME280_humidity;BME280_pressure;Samples;Min_cycle;Max_cycle;Signal;HPM_P1;HPM_P2
2023/03/29 00:00:13;;;;;;;7.87;7.30;;;5.90;99.90;;;;;;5033770;28;20183;-64
2023/03/29 00:02:40;;;;;;;7.17;6.87;;;6.00;99.90;;;;;;5019519;28;20175;-64
2023/03/29 00:05:06;;;;;;;7.77;7.20;;;6.00;99.90;;;;;;5032934;28;20183;-65
2023/03/29 00:07:32;;;;;;;6.70;6.33;;;6.00;99.90;;;;;;5051877;28;20232;-64
2023/03/29 00:10:03;;;;;;;7.57;7.07;;;6.00;99.90;;;;;;5052404;28;20195;-64
2023/03/29 00:12:29;;;;;;;9.07;6.80;;;6.00;99.90;;;;;;5016077;28;20190;-64
2023/03/29 00:14:56;;;;;;;6.70;6.30;;;6.00;99.90;;;;;;5032649;28;20194;-64
2023/03/29 00:17:21;;;;;;;7.50;6.87;;;6.00;99.90;;;;;;5049443;28;20174;-64
2023/03/29 00:19:47;;;;;;;7.17;6.53;;;6.00;99.90;;;;;;5046260;28;20345;-63
2023/03/29 00:22:13;;;;;;;7.60;6.20;;;6.00;99.90;;;;;;5032827;28;20164;-63
2023/03/29 00:24:38;;;;;;;6.90;6.37;;;6.00;99.90;;;;;;5034161;28;20203;-64
2023/03/29 00:27:04;;;;;;;6.63;6.20;;;6.00;99.90;;;;;;5052792;28;20560;-63
2023/03/29 00:29:31;;;;;;;6.90;6.40;;;6.00;99.90;;;;;;5040402;28;20334;-63
2023/03/29 00:31:57;;;;;;;7.80;6.43;;;6.00;99.90;;;;;;5032481;28;20537;-63
2023/03/29 00:34:23;;;;;;;7.37;6.77;;;6.00;99.90;;;;;;5032428;28;20191;-63
2023/03/29 00:36:49;;;;;;;6.40;5.90;;;6.00;99.90;;;;;;5032226;28;20544;-63
2023/03/29 00:39:16;;;;;;;7.77;6.97;;;6.00;99.90;;;;;;5039716;28;20174;-63
2023/03/29 00:41:47;;;;;;;7.17;6.77;;;6.00;99.90;;;;;;5052326;28;20175;-64
2023/03/29 00:44:57;;;;;;;7.10;6.60;;;6.00;99.90;;;;;;5044463;28;20214;-64
2023/03/29 00:47:50;;;;;;;6.77;6.30;;;6.00;99.90;;;;;;5008656;28;20210;-64
2023/03/29 00:50:30;;;;;;;6.47;5.87;;;6.00;99.90;;;;;;5044046;28;20237;-64
2023/03/29 00:53:07;;;;;;;6.43;6.00;;;6.00;99.90;;;;;;5040460;28;20174;-64
2023/03/29 00:55:44;;;;;;;6.93;6.53;;;5.90;99.90;;;;;;5048500;28;20232;-63
2023/03/29 00:58:13;;;;;;;7.00;6.47;;;5.90;99.90;;;;;;5052077;28;20178;-64
2023/03/29 01:00:51;;;;;;;7.53;7.03;;;5.90;99.90;;;;;;5034230;28;20203;-63
2023/03/29 01:03:23;;;;;;;6.70;6.30;;;6.00;99.90;;;;;;5031772;28;20717;-63
2023/03/29 01:05:55;;;;;;;7.30;6.80;;;6.00;99.90;;;;;;5032016;28;20179;-63
2023/03/29 01:08:30;;;;;;;7.40;6.80;;;6.00;99.90;;;;;;5031563;28;20172;-64
2023/03/29 01:11:01;;;;;;;7.60;7.00;;;5.90;99.90;;;;;;5048967;28;20209;-65
2023/03/29 01:13:45;;;;;;;7.33;6.73;;;6.00;99.90;;;;;;5051487;28;20624;-65
2023/03/29 01:16:12;;;;;;;6.80;6.40;;;6.00;99.90;;;;;;5032298;28;20711;-64
2023/03/29 01:18:38;;;;;;;7.20;6.60;;;6.00;99.90;;;;;;5031469;28;20229;-64
2023/03/29 01:21:22;;;;;;;7.37;6.77;;;6.00;99.90;;;;;;5032310;28;20638;-63
2023/03/29 01:23:53;;;;;;;7.20;6.80;;;6.00;99.90;;;;;;5031920;28;20270;-63
2023/03/29 01:26:31;;;;;;;6.70;6.20;;;6.10;99.90;;;;;;5033743;28;20211;-63
2023/03/29 01:29:06;;;;;;;6.90;6.40;;;6.10;99.90;;;;;;5031699;28;20164;-63
2023/03/29 01:31:40;;;;;;;6.60;6.30;;;6.10;99.90;;;;;;5042512;28;20178;-63
2023/03/29 01:34:11;;;;;;;6.80;6.30;;;6.20;99.90;;;;;;5031471;28;20224;-63
2023/03/29 01:36:48;;;;;;;7.20;6.70;;;6.20;99.90;;;;;;5030909;28;20716;-63
2023/03/29 01:39:14;;;;;;;6.40;6.00;;;6.10;99.90;;;;;;5031095;28;20294;-63
2023/03/29 01:42:04;;;;;;;6.80;6.40;;;6.20;99.90;;;;;;5050203;28;20707;-64
2023/03/29 01:44:49;;;;;;;6.67;6.27;;;6.20;99.90;;;;;;5049801;28;20195;-64
2023/03/29 01:47:38;;;;;;;6.43;6.10;;;6.20;99.90;;;;;;5011598;28;20160;-65
2023/03/29 01:50:16;;;;;;;6.63;6.00;;;6.20;99.90;;;;;;5021517;28;20190;-65
2023/03/29 01:52:53;;;;;;;7.17;6.27;;;6.20;99.90;;;;;;5050897;28;20166;-65
2023/03/29 01:55:25;;;;;;;7.30;6.90;;;6.20;99.90;;;;;;5030038;28;20181;-65
2023/03/29 01:57:52;;;;;;;9.33;6.67;;;6.20;99.90;;;;;;5029398;28;20175;-64
2023/03/29 02:00:23;;;;;;;6.60;6.23;;;6.20;99.90;;;;;;5030555;28;20282;-64
2023/03/29 02:02:51;;;;;;;6.87;6.40;;;6.20;99.90;;;;;;5030956;28;20285;-64
2023/03/29 02:05:19;;;;;;;7.23;6.70;;;6.20;99.90;;;;;;5035147;28;20175;-64
2023/03/29 02:07:46;;;;;;;7.03;6.40;;;6.30;99.90;;;;;;5042669;28;20207;-63
2023/03/29 02:10:15;;;;;;;7.17;6.60;;;6.30;99.90;;;;;;5031552;28;20240;-65
2023/03/29 02:12:41;;;;;;;6.93;6.43;;;6.30;99.90;;;;;;5030854;28;20665;-65
2023/03/29 02:15:15;;;;;;;7.13;6.67;;;6.30;99.90;;;;;;5032314;28;20210;-65
2023/03/29 02:17:42;;;;;;;6.97;6.57;;;6.30;99.90;;;;;;5050983;28;20170;-64
2023/03/29 02:20:17;;;;;;;7.17;6.67;;;6.30;99.90;;;;;;5037189;28;20187;-64
2023/03/29 02:23:07;;;;;;;7.47;6.90;;;6.30;99.90;;;;;;5030709;28;20253;-65
2023/03/29 02:25:33;;;;;;;6.70;6.20;;;6.30;99.90;;;;;;5028328;28;20207;-63
2023/03/29 02:28:00;;;;;;;7.13;6.63;;;6.30;99.90;;;;;;5050863;28;20167;-64
2023/03/29 02:30:45;;;;;;;6.87;6.33;;;6.30;99.90;;;;;;5034047;28;20651;-65
2023/03/29 02:33:17;;;;;;;6.83;6.33;;;6.30;99.90;;;;;;5030857;28;20179;-65
2023/03/29 02:35:53;;;;;;;6.80;6.30;;;6.30;99.90;;;;;;5046182;28;20202;-64
2023/03/29 02:38:20;;;;;;;7.90;7.40;;;6.30;99.90;;;;;;5040438;28;20543;-65
2023/03/29 02:40:46;;;;;;;7.90;7.30;;;6.40;99.90;;;;;;5050280;28;20210;-65
2023/03/29 02:43:14;;;;;;;7.70;7.20;;;6.40;99.90;;;;;;5052135;28;20327;-65
2023/03/29 02:45:41;;;;;;;7.03;6.63;;;6.40;99.90;;;;;;5034347;28;20180;-64
2023/03/29 02:48:12;;;;;;;7.70;7.20;;;6.50;99.90;;;;;;5034299;28;20172;-64
2023/03/29 02:50:40;;;;;;;7.40;6.87;;;6.50;99.90;;;;;;5053688;28;20194;-64
2023/03/29 02:53:15;;;;;;;8.13;7.53;;;6.50;99.90;;;;;;5054107;28;20179;-64
2023/03/29 02:55:40;;;;;;;7.83;7.33;;;6.60;99.90;;;;;;5014601;28;20390;-64
2023/03/29 02:58:07;;;;;;;7.03;6.60;;;6.60;99.90;;;;;;5014475;28;20255;-65
2023/03/29 03:00:38;;;;;;;6.40;6.00;;;6.60;99.90;;;;;;5051574;28;20241;-64
2023/03/29 03:03:06;;;;;;;8.13;7.53;;;6.70;99.90;;;;;;5049756;28;20195;-64
2023/03/29 03:05:32;;;;;;;6.67;6.27;;;6.70;99.90;;;;;;5051669;28;20183;-64
2023/03/29 03:07:58;;;;;;;7.10;6.50;;;6.70;99.90;;;;;;5053953;28;20174;-64
2023/03/29 03:10:23;;;;;;;7.30;6.67;;;6.70;99.90;;;;;;5036871;28;20199;-65
2023/03/29 03:12:49;;;;;;;8.03;7.43;;;6.70;99.90;;;;;;5033954;28;20179;-65
2023/03/29 03:15:15;;;;;;;7.60;7.00;;;6.70;99.90;;;;;;5047862;28;20178;-63
2023/03/29 03:17:40;;;;;;;7.20;6.80;;;6.70;99.90;;;;;;5053617;28;20293;-63
2023/03/29 03:20:13;;;;;;;6.93;6.53;;;6.60;99.90;;;;;;5040740;28;20586;-64
2023/03/29 03:22:47;;;;;;;6.60;6.10;;;6.60;99.90;;;;;;5033624;28;20251;-63
2023/03/29 03:25:18;;;;;;;7.47;6.77;;;6.60;99.90;;;;;;5046213;28;20289;-63
2023/03/29 03:27:44;;;;;;;7.20;6.70;;;6.60;99.90;;;;;;5053863;28;20374;-63
2023/03/29 03:30:10;;;;;;;6.50;6.00;;;6.70;99.90;;;;;;5041322;28;20199;-63
2023/03/29 03:32:36;;;;;;;7.90;7.30;;;6.70;99.90;;;;;;5033489;28;20579;-63
2023/03/29 03:35:04;;;;;;;6.80;6.40;;;6.70;99.90;;;;;;5042947;28;20652;-63
2023/03/29 03:37:30;;;;;;;7.03;6.53;;;6.80;99.90;;;;;;5034773;28;20183;-65
2023/03/29 03:39:56;;;;;;;7.20;6.80;;;6.80;99.90;;;;;;5041217;28;20297;-65
2023/03/29 03:42:22;;;;;;;7.53;7.03;;;6.80;99.90;;;;;;5053146;28;20214;-65
2023/03/29 03:44:49;;;;;;;7.33;6.87;;;6.90;99.90;;;;;;5046060;28;20640;-65
2023/03/29 03:47:14;;;;;;;7.30;6.90;;;6.90;99.90;;;;;;5033531;28;20167;-64
2023/03/29 03:49:41;;;;;;;7.20;6.60;;;6.90;99.90;;;;;;5037635;28;20195;-65
2023/03/29 03:52:07;;;;;;;8.13;7.60;;;6.90;99.90;;;;;;5053287;28;20568;-65
2023/03/29 03:54:33;;;;;;;6.90;6.50;;;7.00;99.90;;;;;;5048429;28;20218;-64
2023/03/29 03:56:58;;;;;;;7.07;6.23;;;7.00;99.90;;;;;;5032877;28;20629;-64
2023/03/29 03:59:25;;;;;;;7.27;6.80;;;7.00;99.90;;;;;;5034103;28;20211;-64
2023/03/29 04:01:51;;;;;;;8.60;7.87;;;7.00;99.90;;;;;;5052941;28;20171;-64
2023/03/29 04:04:18;;;;;;;8.13;7.63;;;7.00;99.90;;;;;;5051991;28;20340;-64
2023/03/29 04:06:44;;;;;;;7.20;6.80;;;7.00;99.90;;;;;;5032519;28;20193;-64
2023/03/29 04:09:09;;;;;;;7.33;6.87;;;7.00;99.90;;;;;;5030724;28;20649;-64
2023/03/29 04:11:35;;;;;;;7.20;6.80;;;7.00;99.90;;;;;;5050990;28;20285;-64
2023/03/29 04:14:02;;;;;;;8.70;8.10;;;7.00;99.90;;;;;;5052689;28;20449;-64
2023/03/29 04:16:27;;;;;;;7.60;7.10;;;7.10;99.90;;;;;;5049051;28;20190;-65
2023/03/29 04:18:53;;;;;;;7.37;6.90;;;7.10;99.90;;;;;;5032546;28;20183;-63
2023/03/29 04:21:19;;;;;;;7.33;6.83;;;7.10;99.90;;;;;;5032378;28;20269;-63
2023/03/29 04:23:46;;;;;;;8.03;7.53;;;7.10;99.90;;;;;;5032685;28;20199;-63
2023/03/29 04:26:16;;;;;;;8.23;7.70;;;7.10;99.90;;;;;;5032433;28;20198;-65
2023/03/29 04:28:42;;;;;;;7.40;7.00;;;7.10;99.90;;;;;;5037440;28;20170;-65
2023/03/29 04:31:12;;;;;;;7.30;6.90;;;7.10;99.90;;;;;;5033882;28;20633;-64
2023/03/29 04:33:37;;;;;;;7.37;6.87;;;7.10;99.90;;;;;;5047926;28;20233;-64
2023/03/29 04:36:04;;;;;;;8.37;7.77;;;7.10;99.90;;;;;;5032441;28;20665;-65
2023/03/29 04:38:30;;;;;;;7.50;7.10;;;7.10;99.90;;;;;;5034597;28;20223;-64
2023/03/29 04:40:56;;;;;;;8.20;7.70;;;7.10;99.90;;;;;;5052442;28;20569;-63
2023/03/29 04:43:22;;;;;;;7.90;7.40;;;7.10;99.90;;;;;;5038854;28;20209;-63
2023/03/29 04:45:48;;;;;;;7.47;6.97;;;7.10;99.90;;;;;;5052227;28;20175;-63
2023/03/29 04:48:14;;;;;;;8.40;7.67;;;7.10;99.90;;;;;;5046268;28;20233;-62
2023/03/29 04:50:40;;;;;;;8.63;8.00;;;7.10;99.90;;;;;;5031571;28;20580;-63
2023/03/29 04:53:06;;;;;;;7.43;7.03;;;7.10;99.90;;;;;;5035801;28;20183;-63
2023/03/29 04:55:32;;;;;;;8.57;7.77;;;7.10;99.90;;;;;;5049932;28;20179;-63
2023/03/29 04:57:57;;;;;;;7.90;7.40;;;7.10;99.90;;;;;;5032101;28;20250;-63
2023/03/29 05:00:26;;;;;;;7.77;7.37;;;7.10;99.90;;;;;;5031351;28;20719;-63
2023/03/29 05:02:52;;;;;;;8.33;7.73;;;7.20;99.90;;;;;;5011998;28;20180;-63
2023/03/29 05:05:18;;;;;;;8.53;7.93;;;7.20;99.90;;;;;;5011452;28;20180;-63
2023/03/29 05:07:44;;;;;;;8.83;7.40;;;7.20;99.90;;;;;;5049717;28;20640;-63
2023/03/29 05:10:10;;;;;;;7.17;6.77;;;7.20;99.90;;;;;;5051438;28;20198;-63
2023/03/29 05:12:36;;;;;;;7.47;6.90;;;7.20;99.90;;;;;;5049905;28;20283;-63
2023/03/29 05:15:02;;;;;;;8.10;7.60;;;7.20;99.90;;;;;;5040489;28;20206;-63
2023/03/29 05:17:28;;;;;;;8.23;7.60;;;7.20;99.90;;;;;;5031910;28;20269;-63
2023/03/29 05:19:54;;;;;;;7.40;7.00;;;7.20;99.90;;;;;;5031360;28;20672;-63
2023/03/29 05:22:20;;;;;;;8.00;7.40;;;7.20;99.90;;;;;;5041856;28;20191;-63
2023/03/29 05:24:46;;;;;;;7.97;7.30;;;7.30;99.90;;;;;;5031727;28;20203;-63
2023/03/29 05:27:12;;;;;;;7.10;6.70;;;7.30;99.90;;;;;;5032397;28;20544;-63
2023/03/29 05:29:37;;;;;;;6.80;6.50;;;7.30;99.90;;;;;;5031279;28;20294;-63
2023/03/29 05:32:03;;;;;;;7.60;7.13;;;7.30;99.90;;;;;;5043814;28;20266;-63
2023/03/29 05:34:30;;;;;;;7.40;6.90;;;7.30;99.90;;;;;;5051212;28;20211;-63
2023/03/29 05:36:57;;;;;;;8.60;7.90;;;7.30;99.90;;;;;;5049388;28;20190;-63
2023/03/29 05:39:23;;;;;;;8.20;7.77;;;7.30;99.90;;;;;;5050662;28;20178;-63
2023/03/29 05:41:49;;;;;;;9.20;8.73;;;7.30;99.90;;;;;;5050760;28;20420;-63
2023/03/29 05:44:15;;;;;;;7.73;7.30;;;7.40;99.90;;;;;;5051092;28;20238;-63
2023/03/29 05:46:41;;;;;;;7.33;6.93;;;7.40;99.90;;;;;;5043224;28;20194;-63
2023/03/29 05:49:07;;;;;;;7.50;7.00;;;7.40;99.90;;;;;;5028778;28;20187;-62
2023/03/29 05:51:34;;;;;;;7.83;7.23;;;7.40;99.90;;;;;;5036921;28;20186;-63
2023/03/29 05:54:00;;;;;;;7.63;7.23;;;7.40;99.90;;;;;;5051204;28;20179;-63
2023/03/29 05:56:26;;;;;;;7.47;7.03;;;7.50;99.90;;;;;;5050354;28;20218;-64
2023/03/29 05:58:55;;;;;;;8.57;7.97;;;7.50;99.90;;;;;;5031190;28;20270;-63
2023/03/29 06:01:22;;;;;;;7.50;7.10;;;7.50;99.90;;;;;;5030851;28;20195;-63
2023/03/29 06:03:49;;;;;;;8.17;7.67;;;7.60;99.90;;;;;;5029972;28;20207;-63
2023/03/29 06:06:15;;;;;;;8.77;7.23;;;7.60;99.90;;;;;;5032273;28;20582;-63
2023/03/29 06:08:41;;;;;;;6.97;6.53;;;7.60;99.90;;;;;;5050921;28;20675;-63
2023/03/29 06:11:07;;;;;;;7.80;7.10;;;7.60;99.90;;;;;;5050429;28;20199;-63
2023/03/29 06:13:33;;;;;;;8.00;7.40;;;7.60;99.90;;;;;;5050986;28;20175;-63
2023/03/29 06:15:59;;;;;;;7.57;7.07;;;7.70;99.90;;;;;;5049106;28;20190;-63
2023/03/29 06:18:25;;;;;;;6.67;6.17;;;7.70;99.90;;;;;;5045729;28;20184;-63
2023/03/29 06:20:52;;;;;;;6.27;5.87;;;7.70;99.90;;;;;;5032517;28;20214;-64
2023/03/29 06:23:18;;;;;;;7.13;6.73;;;7.70;99.90;;;;;;5041838;28;20699;-63
2023/03/29 06:25:44;;;;;;;9.23;6.73;;;7.80;99.90;;;;;;5054561;28;20179;-64
2023/03/29 06:28:11;;;;;;;8.27;7.47;;;7.80;99.90;;;;;;5054642;28;20181;-64
2023/03/29 06:30:37;;;;;;;7.13;6.70;;;7.80;99.90;;;;;;5054597;28;20589;-64
2023/03/29 06:33:07;;;;;;;8.20;7.60;;;7.80;99.90;;;;;;5050446;28;20508;-64
2023/03/29 06:35:33;;;;;;;8.00;7.30;;;7.80;99.90;;;;;;5034839;28;20175;-64
2023/03/29 06:38:00;;;;;;;6.93;6.43;;;7.90;99.90;;;;;;5037440;28;20197;-64
2023/03/29 06:40:26;;;;;;;7.17;6.77;;;7.90;99.90;;;;;;5054213;28;20686;-64
2023/03/29 06:42:56;;;;;;;6.53;6.03;;;8.00;99.90;;;;;;5052499;28;20209;-64
2023/03/29 06:45:23;;;;;;;6.87;6.17;;;8.00;99.90;;;;;;5034389;28;20167;-64
2023/03/29 06:47:49;;;;;;;7.40;6.90;;;8.10;99.90;;;;;;5034797;28;20176;-64
2023/03/29 06:50:16;;;;;;;7.20;6.73;;;8.10;99.90;;;;;;5054034;28;20668;-64
2023/03/29 06:52:42;;;;;;;7.00;6.60;;;8.20;99.90;;;;;;5035230;28;20205;-63
2023/03/29 06:55:10;;;;;;;7.90;7.13;;;8.20;99.90;;;;;;5051485;28;20199;-64
2023/03/29 06:57:36;;;;;;;7.03;6.47;;;8.30;99.90;;;;;;5053234;28;20179;-63
2023/03/29 07:00:13;;;;;;;6.73;6.33;;;8.30;99.90;;;;;;5035419;28;20717;-64
2023/03/29 07:02:38;;;;;;;7.07;5.60;;;8.40;99.90;;;;;;5033859;28;20175;-64
2023/03/29 07:05:05;;;;;;;7.47;7.03;;;8.40;99.90;;;;;;5043565;28;20172;-63
2023/03/29 07:07:52;;;;;;;7.37;6.97;;;8.50;99.90;;;;;;5025060;28;20179;-64
2023/03/29 07:10:16;;;;;;;6.10;5.70;;;8.60;99.90;;;;;;5033655;28;20196;-64
2023/03/29 07:12:45;;;;;;;7.07;6.53;;;8.60;99.90;;;;;;5044048;28;20237;-64
2023/03/29 07:15:10;;;;;;;8.97;6.60;;;8.70;99.90;;;;;;5053825;28;20178;-63
2023/03/29 07:17:36;;;;;;;6.40;6.10;;;8.70;99.90;;;;;;5044402;28;20274;-64
2023/03/29 07:20:02;;;;;;;6.33;5.93;;;8.80;99.90;;;;;;5016030;28;20198;-65
2023/03/29 07:22:27;;;;;;;7.70;6.00;;;8.80;99.90;;;;;;5046856;28;20182;-65
2023/03/29 07:24:53;;;;;;;7.37;6.90;;;8.80;99.90;;;;;;5053605;28;20659;-65
2023/03/29 07:27:19;;;;;;;7.20;6.70;;;8.80;99.90;;;;;;5041771;28;20274;-64
2023/03/29 07:29:45;;;;;;;7.27;6.87;;;8.70;99.90;;;;;;5032305;28;20624;-65
2023/03/29 07:32:11;;;;;;;7.20;6.80;;;8.60;99.90;;;;;;5043332;28;20167;-64
2023/03/29 07:34:36;;;;;;;10.63;7.43;;;8.60;99.90;;;;;;5053331;28;20616;-65
2023/03/29 07:37:02;;;;;;;7.90;7.17;;;8.70;99.90;;;;;;5045013;28;20180;-65
2023/03/29 07:39:27;;;;;;;8.23;7.13;;;8.80;99.90;;;;;;5032943;28;20561;-65
2023/03/29 07:41:56;;;;;;;7.53;7.03;;;9.00;99.90;;;;;;5039513;28;20293;-65
2023/03/29 07:44:22;;;;;;;6.67;6.10;;;9.20;99.90;;;;;;5053051;28;20285;-65
2023/03/29 07:46:48;;;;;;;5.50;5.10;;;9.40;99.90;;;;;;5051713;28;20274;-65
2023/03/29 07:49:14;;;;;;;6.00;5.70;;;9.60;99.90;;;;;;5053321;28;20236;-65
2023/03/29 07:51:40;;;;;;;6.03;5.63;;;9.80;99.90;;;;;;5049531;28;20274;-65
2023/03/29 07:54:06;;;;;;;6.07;5.67;;;10.00;99.90;;;;;;5015378;28;20191;-65
2023/03/29 07:56:32;;;;;;;6.40;5.73;;;10.10;99.90;;;;;;5034791;28;20540;-65
2023/03/29 07:58:57;;;;;;;7.07;6.57;;;10.10;99.90;;;;;;5052988;28;20258;-65
2023/03/29 08:01:23;;;;;;;6.17;5.77;;;10.30;99.90;;;;;;5052477;28;20665;-64
2023/03/29 08:03:49;;;;;;;6.57;5.97;;;10.30;99.90;;;;;;5032849;28;20280;-65
2023/03/29 08:06:15;;;;;;;6.57;5.97;;;10.40;99.90;;;;;;5033015;28;20179;-64
2023/03/29 08:08:41;;;;;;;7.40;6.80;;;10.40;99.90;;;;;;5051050;28;20537;-64
2023/03/29 08:11:08;;;;;;;6.13;5.70;;;10.60;99.90;;;;;;5047085;28;20206;-64
2023/03/29 08:13:34;;;;;;;5.70;5.30;;;10.80;99.90;;;;;;5032927;28;20184;-64
2023/03/29 08:16:00;;;;;;;6.33;5.73;;;10.90;99.90;;;;;;5048002;28;20203;-64
2023/03/29 08:18:26;;;;;;;5.67;5.23;;;11.10;99.90;;;;;;5042053;28;20186;-65
2023/03/29 08:20:52;;;;;;;6.90;6.20;;;11.30;99.90;;;;;;5032193;28;20191;-65
2023/03/29 08:23:17;;;;;;;5.67;5.30;;;11.60;99.90;;;;;;5040746;28;20206;-65
2023/03/29 08:25:45;;;;;;;6.40;5.80;;;11.70;99.90;;;;;;5052407;28;20174;-65
2023/03/29 08:28:10;;;;;;;5.50;5.20;;;11.90;99.90;;;;;;5045351;28;20203;-64
2023/03/29 08:30:36;;;;;;;6.20;5.70;;;11.90;99.90;;;;;;5032025;28;20222;-65
2023/03/29 08:33:01;;;;;;;5.80;5.30;;;11.80;99.90;;;;;;5019670;28;20707;-65
2023/03/29 08:35:27;;;;;;;5.87;5.47;;;11.80;99.90;;;;;;5052210;28;20186;-65
2023/03/29 08:37:52;;;;;;;6.73;5.17;;;11.60;99.90;;;;;;5048489;28;20183;-69
2023/03/29 08:40:28;;;;;;;5.80;5.40;;;11.60;99.90;;;;;;5031794;28;20398;-64
2023/03/29 08:43:13;;;;;;;6.30;5.80;;;11.50;99.90;;;;;;5036661;28;20186;-65
2023/03/29 08:45:53;;;;;;;5.80;5.40;;;11.50;99.90;;;;;;5052037;28;20175;-67
2023/03/29 08:48:26;;;;;;;5.53;5.13;;;11.40;99.90;;;;;;5041415;28;20190;-65
2023/03/29 08:50:59;;;;;;;6.67;5.60;;;11.40;99.90;;;;;;5031835;28;20277;-65
2023/03/29 08:53:35;;;;;;;5.27;4.97;;;11.50;99.90;;;;;;5042400;28;20187;-65
2023/03/29 08:56:07;;;;;;;5.17;4.87;;;11.60;99.90;;;;;;5051948;28;20182;-65
2023/03/29 08:58:35;;;;;;;5.90;5.40;;;11.60;99.90;;;;;;5050096;28;20183;-64
2023/03/29 09:01:04;;;;;;;6.97;6.00;;;11.60;99.90;;;;;;5051352;28;20546;-64
2023/03/29 09:03:57;;;;;;;5.87;5.37;;;11.70;99.90;;;;;;5041338;28;20200;-65
2023/03/29 09:06:22;;;;;;;6.93;6.23;;;11.80;99.90;;;;;;5032081;28;20194;-65
2023/03/29 09:08:51;;;;;;;7.10;6.03;;;11.80;99.90;;;;;;5043884;28;20187;-64
2023/03/29 09:11:22;;;;;;;6.70;6.20;;;11.90;99.90;;;;;;5051174;28;20560;-65
2023/03/29 09:14:07;;;;;;;5.87;5.37;;;11.90;99.90;;;;;;5040027;28;20590;-64
2023/03/29 09:16:42;;;;;;;6.17;5.57;;;12.00;99.90;;;;;;5031171;28;20183;-65
2023/03/29 09:19:29;;;;;;;6.17;5.67;;;12.10;99.90;;;;;;5044711;28;20667;-65
2023/03/29 09:22:22;;;;;;;9.60;5.03;;;12.20;99.90;;;;;;5051463;28;20261;-65
2023/03/29 09:25:14;;;;;;;5.77;5.33;;;12.30;99.90;;;;;;5032470;28;20218;-64
2023/03/29 09:28:03;;;;;;;5.70;4.93;;;12.40;99.90;;;;;;5031802;28;20210;-65
2023/03/29 09:30:40;;;;;;;5.73;5.33;;;12.60;99.90;;;;;;4993704;28;20200;-65
2023/03/29 09:33:25;;;;;;;5.33;4.93;;;12.70;99.90;;;;;;5023046;28;20636;-64
2023/03/29 09:36:07;;;;;;;5.97;5.43;;;13.00;99.90;;;;;;5051268;28;20258;-65
2023/03/29 09:38:38;;;;;;;5.40;4.80;;;13.20;99.90;;;;;;5042352;28;20244;-65
2023/03/29 09:41:20;;;;;;;5.53;5.10;;;13.40;99.90;;;;;;5030819;28;20207;-65
2023/03/29 09:43:48;;;;;;;5.00;4.60;;;13.40;99.90;;;;;;5038071;28;20427;-65
2023/03/29 09:46:23;;;;;;;5.10;4.70;;;13.40;99.90;;;;;;5049152;28;20181;-65
2023/03/29 09:48:50;;;;;;;5.37;4.97;;;13.30;99.90;;;;;;5044389;28;20189;-64
2023/03/29 09:51:17;;;;;;;5.73;5.33;;;13.20;99.90;;;;;;5044919;28;20199;-64
2023/03/29 09:53:43;;;;;;;4.97;4.60;;;13.20;99.90;;;;;;5038128;28;20213;-64
2023/03/29 09:56:09;;;;;;;5.73;4.70;;;13.30;99.90;;;;;;5056070;28;20260;-65
2023/03/29 09:58:35;;;;;;;5.57;5.17;;;13.40;99.90;;;;;;5058349;28;20181;-64
2023/03/29 10:01:07;;;;;;;5.40;5.00;;;13.50;99.90;;;;;;5044401;28;20211;-66
2023/03/29 10:03:33;;;;;;;5.17;4.87;;;13.60;99.90;;;;;;5038129;28;20232;-64
2023/03/29 10:06:01;;;;;;;7.87;4.60;;;13.70;99.90;;;;;;5038185;28;20258;-65
2023/03/29 10:08:35;;;;;;;5.27;4.77;;;13.80;99.90;;;;;;5038415;28;20171;-65
2023/03/29 10:11:08;;;;;;;6.20;4.90;;;13.90;99.90;;;;;;5037866;28;20198;-64
2023/03/29 10:13:41;;;;;;;7.07;6.67;;;14.00;99.90;;;;;;5037845;28;20174;-64
2023/03/29 10:16:17;;;;;;;4.57;4.30;;;14.10;99.90;;;;;;5052777;28;20174;-64
2023/03/29 10:18:43;;;;;;;4.70;4.40;;;14.20;99.90;;;;;;5044844;28;20205;-65
2023/03/29 10:21:14;;;;;;;4.63;4.43;;;14.10;99.90;;;;;;5034998;28;20210;-65
2023/03/29 10:23:40;;;;;;;4.80;4.50;;;14.00;99.90;;;;;;5048899;28;20226;-65
2023/03/29 10:26:15;;;;;;;5.17;4.77;;;13.90;99.90;;;;;;5057499;28;20267;-65
2023/03/29 10:28:41;;;;;;;5.43;4.93;;;14.00;99.90;;;;;;5045945;28;20375;-65
2023/03/29 10:31:07;;;;;;;4.90;4.60;;;14.20;99.90;;;;;;5053986;28;20202;-65
2023/03/29 10:33:35;;;;;;;4.80;4.50;;;14.50;99.90;;;;;;5048473;28;20184;-64
2023/03/29 10:36:05;;;;;;;5.10;4.80;;;14.90;99.90;;;;;;5038315;28;20179;-64
2023/03/29 10:38:31;;;;;;;7.07;4.30;;;15.30;99.90;;;;;;5046073;28;20175;-64
2023/03/29 10:41:08;;;;;;;5.93;4.53;;;15.70;99.90;;;;;;5057571;28;20217;-65
2023/03/29 10:43:37;;;;;;;4.73;4.40;;;16.00;99.90;;;;;;5045964;28;20206;-64
2023/03/29 10:46:29;;;;;;;4.60;4.00;;;16.20;99.90;;;;;;5037353;28;20191;-64
2023/03/29 10:49:09;;;;;;;6.40;4.20;;;16.30;99.90;;;;;;5050221;28;20170;-64
2023/03/29 10:51:35;;;;;;;4.03;3.73;;;16.60;99.90;;;;;;5057349;28;20672;-64
2023/03/29 10:54:02;;;;;;;4.50;4.20;;;16.90;99.90;;;;;;5041686;28;20554;-64
2023/03/29 10:56:41;;;;;;;4.43;4.20;;;17.20;99.90;;;;;;5046469;28;20186;-64
2023/03/29 10:59:13;;;;;;;3.87;3.57;;;17.60;99.90;;;;;;5057066;28;20170;-64
2023/03/29 11:02:01;;;;;;;4.37;3.97;;;17.80;99.90;;;;;;5046248;28;20187;-65
2023/03/29 11:04:47;;;;;;;4.53;4.23;;;17.90;99.90;;;;;;5033979;28;20204;-64
2023/03/29 11:07:36;;;;;;;4.60;4.30;;;18.00;99.90;;;;;;5051231;28;20183;-64
2023/03/29 11:10:16;;;;;;;3.97;3.70;;;17.90;99.90;;;;;;5053683;28;20195;-64
2023/03/29 11:13:01;;;;;;;5.00;4.70;;;17.90;99.90;;;;;;5014525;28;20201;-64
2023/03/29 11:15:32;;;;;;;4.67;4.37;;;17.70;99.90;;;;;;5018220;28;20180;-64
2023/03/29 11:18:06;;;;;;;5.00;4.17;;;17.50;99.90;;;;;;5053646;28;20208;-64
2023/03/29 11:20:45;;;;;;;4.20;3.90;;;17.30;99.90;;;;;;5050707;28;20209;-64
2023/03/29 11:23:22;;;;;;;5.07;4.60;;;17.10;99.90;;;;;;5033494;28;20229;-64
2023/03/29 11:25:59;;;;;;;4.90;4.40;;;17.20;99.90;;;;;;5032551;28;20191;-64
2023/03/29 11:28:55;;;;;;;4.47;4.07;;;17.10;99.90;;;;;;5033871;28;20633;-64
2023/03/29 11:31:23;;;;;;;4.70;3.97;;;17.40;99.90;;;;;;5033969;28;20191;-65
2023/03/29 11:34:00;;;;;;;4.10;3.80;;;17.80;99.90;;;;;;5033581;28;20178;-64
2023/03/29 11:36:53;;;;;;;4.47;4.10;;;18.20;99.90;;;;;;5041392;28;20249;-64
2023/03/29 11:39:36;;;;;;;6.03;4.43;;;18.50;99.90;;;;;;5053090;28;20257;-63
2023/03/29 11:42:14;;;;;;;4.30;3.97;;;18.60;99.90;;;;;;5040652;28;20187;-64
2023/03/29 11:44:43;;;;;;;4.87;3.67;;;18.50;99.90;;;;;;5033289;28;20199;-64
2023/03/29 11:47:14;;;;;;;4.40;4.07;;;18.40;99.90;;;;;;5045747;28;20263;-64
2023/03/29 11:49:53;;;;;;;4.57;4.20;;;18.50;99.90;;;;;;5052795;28;20191;-64
2023/03/29 11:52:34;;;;;;;3.93;3.73;;;18.80;99.90;;;;;;5039173;28;20566;-65
2023/03/29 11:55:04;;;;;;;4.57;4.37;;;19.30;99.90;;;;;;5033482;28;20171;-65
2023/03/29 11:57:32;;;;;;;6.80;4.13;;;19.40;99.90;;;;;;5033959;28;20179;-64
2023/03/29 12:00:11;;;;;;;3.80;3.50;;;19.10;99.90;;;;;;5014996;28;20284;-64
2023/03/29 12:02:41;;;;;;;3.50;3.30;;;18.90;99.90;;;;;;5047929;28;20201;-65
2023/03/29 12:05:18;;;;;;;3.97;3.70;;;18.50;99.90;;;;;;5052865;28;20204;-64
2023/03/29 12:07:50;;;;;;;4.67;4.37;;;18.10;99.90;;;;;;5036977;28;20696;-65
2023/03/29 12:10:20;;;;;;;3.73;3.53;;;17.90;99.90;;;;;;5037102;28;20268;-65
2023/03/29 12:12:58;;;;;;;4.00;3.80;;;17.80;99.90;;;;;;5039281;28;20224;-65
2023/03/29 12:15:28;;;;;;;4.10;3.80;;;17.60;99.90;;;;;;5040061;28;20179;-65
2023/03/29 12:18:31;;;;;;;4.40;4.10;;;17.60;99.90;;;;;;5042335;28;20652;-65
2023/03/29 12:21:02;;;;;;;4.00;3.80;;;17.50;99.90;;;;;;5032170;28;20401;-65
2023/03/29 12:23:31;;;;;;;4.37;4.07;;;17.70;99.90;;;;;;5046511;28;20203;-65
2023/03/29 12:26:09;;;;;;;4.47;4.07;;;17.80;99.90;;;;;;5052480;28;20301;-64
2023/03/29 12:29:16;;;;;;;3.97;3.67;;;18.00;99.90;;;;;;5050878;28;20186;-65
2023/03/29 12:32:02;;;;;;;4.23;3.80;;;18.10;99.90;;;;;;5042572;28;20675;-65
2023/03/29 12:34:52;;;;;;;3.53;3.33;;;18.30;99.90;;;;;;5032397;28;20207;-65
2023/03/29 12:37:39;;;;;;;4.07;3.87;;;18.40;99.90;;;;;;5049561;28;20179;-65
2023/03/29 12:40:14;;;;;;;4.20;4.00;;;18.50;99.90;;;;;;5038854;28;20220;-64
2023/03/29 12:43:00;;;;;;;4.00;3.80;;;18.70;99.90;;;;;;5032202;28;20171;-65
2023/03/29 12:45:30;;;;;;;3.73;3.50;;;18.90;99.90;;;;;;5046724;28;20183;-65
2023/03/29 12:47:56;;;;;;;3.40;3.20;;;19.40;99.90;;;;;;5052174;28;20659;-65
2023/03/29 12:50:34;;;;;;;4.72;3.70;;;19.90;99.90;;;;;;5049809;28;20565;-65
2023/03/29 12:53:37;;;;;;;3.15;2.95;;;20.40;99.90;;;;;;5050957;28;20531;-64
2023/03/29 12:56:02;;;;;;;3.47;3.20;;;20.80;99.90;;;;;;5032709;28;20667;-65
2023/03/29 12:58:37;;;;;;;3.50;3.30;;;20.90;99.90;;;;;;5032275;28;20176;-65
2023/03/29 13:01:08;;;;;;;3.63;3.35;;;20.90;99.90;;;;;;5041197;28;20215;-64
2023/03/29 13:03:47;;;;;;;3.63;3.40;;;20.80;99.90;;;;;;5030901;28;20199;-65
2023/03/29 13:06:24;;;;;;;4.25;4.05;;;20.80;99.90;;;;;;5031520;28;20174;-64
2023/03/29 13:08:58;;;;;;;10.13;3.65;;;20.90;99.90;;;;;;5031174;28;20626;-65
2023/03/29 13:11:39;;;;;;;3.13;3.00;;;20.80;99.90;;;;;;5031286;28;20761;-65